createdAt,value
2017-02-23T00:00:18.483Z,0
2017-02-23T00:01:18.894Z,0
2017-02-23T00:02:18.849Z,0
2017-02-23T00:03:18.823Z,0
2017-02-23T00:04:18.853Z,0
2017-02-23T00:05:18.449Z,0
2017-02-23T00:06:18.788Z,0
2017-02-23T00:07:18.804Z,0
2017-02-23T00:08:18.782Z,0
2017-02-23T00:09:18.755Z,0
2017-02-23T00:10:18.747Z,0
2017-02-23T00:11:18.771Z,0
2017-02-23T00:12:18.730Z,0
2017-02-23T00:13:18.712Z,0
2017-02-23T00:14:18.691Z,0
2017-02-23T00:15:18.676Z,0
2017-02-23T00:16:18.289Z,0
2017-02-23T00:17:18.652Z,0
2017-02-23T00:18:18.916Z,0
2017-02-23T00:19:18.242Z,0
2017-02-23T00:20:18.612Z,0
2017-02-23T00:21:18.229Z,0
2017-02-23T00:22:18.599Z,0
2017-02-23T00:23:18.593Z,0
2017-02-23T00:24:18.191Z,0
2017-02-23T00:25:18.544Z,0
2017-02-23T00:26:18.153Z,0
2017-02-23T00:27:17.373Z,0
2017-02-23T00:28:18.512Z,0
2017-02-23T00:29:18.501Z,0
2017-02-23T00:30:18.492Z,0
2017-02-23T00:31:18.467Z,0
2017-02-23T00:32:18.476Z,0
2017-02-23T00:33:18.077Z,0
2017-02-23T00:34:17.681Z,0
2017-02-23T00:35:17.652Z,0
2017-02-23T00:36:18.025Z,0
2017-02-23T00:37:18.394Z,0
2017-02-23T00:38:17.994Z,0
2017-02-23T00:39:17.616Z,0
2017-02-23T00:40:18.370Z,0
2017-02-23T00:41:17.586Z,0
2017-02-23T00:42:17.944Z,0
2017-02-23T00:43:18.317Z,0
2017-02-23T00:44:17.923Z,0
2017-02-23T00:45:17.141Z,0
2017-02-23T00:46:18.314Z,0
2017-02-23T00:47:17.891Z,0
2017-02-23T00:48:17.871Z,0
2017-02-23T00:49:18.245Z,0
2017-02-23T00:50:18.243Z,0
2017-02-23T00:51:18.235Z,0
2017-02-23T00:52:17.065Z,0
2017-02-23T00:53:17.817Z,0
2017-02-23T00:54:18.195Z,0
2017-02-23T00:55:17.394Z,0
2017-02-23T00:56:18.169Z,0
2017-02-23T00:57:18.152Z,0
2017-02-23T00:58:18.140Z,0
2017-02-23T00:59:18.140Z,0
2017-02-23T01:00:17.345Z,0
2017-02-23T01:01:17.707Z,0
2017-02-23T01:02:18.081Z,0
2017-02-23T01:03:18.109Z,0
2017-02-23T01:04:18.055Z,0
2017-02-23T01:05:17.289Z,0
2017-02-23T01:06:18.050Z,0
2017-02-23T01:07:16.874Z,0
2017-02-23T01:08:17.241Z,0
2017-02-23T01:09:17.639Z,0
2017-02-23T01:10:17.604Z,0
2017-02-23T01:11:17.618Z,0
2017-02-23T01:12:17.969Z,0
2017-02-23T01:13:17.585Z,0
2017-02-23T01:14:17.580Z,0
2017-02-23T01:15:17.543Z,0
2017-02-23T01:16:17.946Z,0
2017-02-23T01:17:16.762Z,0
2017-02-23T01:18:17.130Z,0
2017-02-23T01:19:17.485Z,0
2017-02-23T01:20:17.874Z,0
2017-02-23T01:21:17.460Z,0
2017-02-23T01:22:17.845Z,0
2017-02-23T01:23:17.059Z,0
2017-02-23T01:24:17.053Z,0
2017-02-23T01:25:17.798Z,0
2017-02-23T01:26:17.790Z,0
2017-02-23T01:27:17.401Z,0
2017-02-23T01:28:17.390Z,0
2017-02-23T01:29:17.364Z,0
2017-02-23T01:30:17.746Z,0
2017-02-23T01:31:17.365Z,0
2017-02-23T01:32:17.332Z,0
2017-02-23T01:33:17.325Z,0
2017-02-23T01:34:17.728Z,0
2017-02-23T01:35:17.686Z,0
2017-02-23T01:36:17.682Z,0
2017-02-23T01:37:17.277Z,0
2017-02-23T01:38:17.272Z,0
2017-02-23T01:39:17.632Z,0
2017-02-23T01:40:17.635Z,0
2017-02-23T01:41:17.615Z,0
2017-02-23T01:42:17.596Z,0
2017-02-23T01:43:17.193Z,0
2017-02-23T01:44:17.585Z,0
2017-02-23T01:45:17.556Z,0
2017-02-23T01:46:16.792Z,0
2017-02-23T01:47:17.169Z,0
2017-02-23T01:48:17.537Z,0
2017-02-23T01:49:17.514Z,0
2017-02-23T01:50:16.746Z,0
2017-02-23T01:51:17.515Z,0
2017-02-23T01:52:17.094Z,0
2017-02-23T01:53:17.464Z,0
2017-02-23T01:54:17.071Z,0
2017-02-23T01:55:17.061Z,0
2017-02-23T01:56:17.062Z,0
2017-02-23T01:57:17.433Z,0
2017-02-23T01:58:17.014Z,0
2017-02-23T01:59:17.008Z,0
2017-02-23T02:00:16.611Z,0
2017-02-23T02:01:17.397Z,0
2017-02-23T02:02:16.599Z,0
2017-02-23T02:03:17.350Z,0
2017-02-23T02:04:17.342Z,0
2017-02-23T02:05:17.332Z,0
2017-02-23T02:06:16.917Z,0
2017-02-23T02:07:17.307Z,0
2017-02-23T02:08:16.924Z,0
2017-02-23T02:09:16.509Z,0
2017-02-23T02:10:16.881Z,0
2017-02-23T02:11:17.252Z,0
2017-02-23T02:12:16.460Z,0
2017-02-23T02:13:16.837Z,0
2017-02-23T02:14:16.825Z,0
2017-02-23T02:15:16.821Z,0
2017-02-23T02:16:16.817Z,0
2017-02-23T02:17:16.792Z,0
2017-02-23T02:18:16.773Z,0
2017-02-23T02:19:17.168Z,0
2017-02-23T02:20:16.770Z,0
2017-02-23T02:21:17.129Z,0
2017-02-23T02:22:16.340Z,0
2017-02-23T02:23:17.115Z,0
2017-02-23T02:24:16.716Z,0
2017-02-23T02:25:17.104Z,0
2017-02-23T02:26:16.727Z,0
2017-02-23T02:27:16.688Z,0
2017-02-23T02:28:17.058Z,0
2017-02-23T02:29:16.645Z,0
2017-02-23T02:30:17.021Z,0
2017-02-23T02:31:16.640Z,0
2017-02-23T02:32:17.006Z,0
2017-02-23T02:33:17.028Z,0
2017-02-23T02:34:16.592Z,0
2017-02-23T02:35:16.991Z,0
2017-02-23T02:36:16.567Z,0
2017-02-23T02:37:16.936Z,0
2017-02-23T02:38:16.953Z,0
2017-02-23T02:39:16.909Z,0
2017-02-23T02:40:16.902Z,0
2017-02-23T02:41:16.516Z,0
2017-02-23T02:42:16.873Z,0
2017-02-23T02:43:16.875Z,0
2017-02-23T02:44:16.469Z,0
2017-02-23T02:45:16.842Z,0
2017-02-23T02:46:16.445Z,0
2017-02-23T02:47:16.464Z,0
2017-02-23T02:48:16.417Z,0
2017-02-23T02:49:16.800Z,0
2017-02-23T02:50:16.785Z,0
2017-02-23T02:51:16.771Z,0
2017-02-23T02:52:16.783Z,0
2017-02-23T02:53:16.770Z,0
2017-02-23T02:54:16.360Z,0
2017-02-23T02:55:16.741Z,0
2017-02-23T02:56:17.019Z,0
2017-02-23T02:57:16.701Z,0
2017-02-23T02:58:16.708Z,0
2017-02-23T02:59:16.315Z,0
2017-02-23T03:00:16.672Z,0
2017-02-23T03:01:16.957Z,0
2017-02-23T03:02:16.655Z,0
2017-02-23T03:03:16.264Z,0
2017-02-23T03:04:16.625Z,0
2017-02-23T03:05:16.655Z,0
2017-02-23T03:06:16.532Z,0
2017-02-23T03:07:16.613Z,0
2017-02-23T03:08:16.578Z,0
2017-02-23T03:09:16.574Z,0
2017-02-23T03:10:16.200Z,0
2017-02-23T03:11:16.411Z,0
2017-02-23T03:12:16.534Z,0
2017-02-23T03:13:16.540Z,0
2017-02-23T03:14:16.522Z,0
2017-02-23T03:15:16.519Z,0
2017-02-23T03:16:16.359Z,0
2017-02-23T03:17:16.096Z,0
2017-02-23T03:18:16.090Z,0
2017-02-23T03:19:16.474Z,0
2017-02-23T03:20:15.682Z,0
2017-02-23T03:21:16.750Z,0
2017-02-23T03:22:16.047Z,0
2017-02-23T03:23:16.410Z,0
2017-02-23T03:24:16.053Z,0
2017-02-23T03:25:16.015Z,0
2017-02-23T03:26:16.744Z,0
2017-02-23T03:27:16.003Z,0
2017-02-23T03:28:16.375Z,0
2017-02-23T03:29:15.974Z,0
2017-02-23T03:30:16.361Z,0
2017-02-23T03:31:16.629Z,0
2017-02-23T03:32:16.337Z,0
2017-02-23T03:33:15.540Z,0
2017-02-23T03:34:16.293Z,0
2017-02-23T03:35:16.309Z,0
2017-02-23T03:36:16.520Z,0
2017-02-23T03:37:15.893Z,0
2017-02-23T03:38:16.252Z,0
2017-02-23T03:39:16.235Z,0
2017-02-23T03:40:15.471Z,0
2017-02-23T03:41:16.509Z,0
2017-02-23T03:42:16.204Z,0
2017-02-23T03:43:16.231Z,0
2017-02-23T03:44:16.203Z,0
2017-02-23T03:45:16.177Z,0
2017-02-23T03:46:16.093Z,0
2017-02-23T03:47:16.157Z,0
2017-02-23T03:48:16.138Z,0
2017-02-23T03:49:16.150Z,0
2017-02-23T03:50:15.739Z,0
2017-02-23T03:51:16.412Z,0
2017-02-23T03:52:15.707Z,0
2017-02-23T03:53:16.095Z,0
2017-02-23T03:54:15.700Z,0
2017-02-23T03:55:16.066Z,0
2017-02-23T03:56:16.309Z,0
2017-02-23T03:57:16.056Z,0
2017-02-23T03:58:16.051Z,0
2017-02-23T03:59:15.255Z,0
2017-02-23T04:00:15.628Z,0
2017-02-23T04:01:16.256Z,0
2017-02-23T04:02:15.988Z,0
2017-02-23T04:03:15.601Z,0
2017-02-23T04:04:15.578Z,0
2017-02-23T04:05:15.960Z,0
2017-02-23T04:06:16.257Z,0
2017-02-23T04:07:15.554Z,0
2017-02-23T04:08:15.927Z,0
2017-02-23T04:09:15.547Z,0
2017-02-23T04:10:14.750Z,0
2017-02-23T04:11:16.155Z,0
2017-02-23T04:12:15.519Z,0
2017-02-23T04:13:15.496Z,0
2017-02-23T04:14:15.506Z,0
2017-02-23T04:15:15.481Z,0
2017-02-23T04:16:15.706Z,0
2017-02-23T04:17:15.843Z,0
2017-02-23T04:18:15.827Z,0
2017-02-23T04:19:15.823Z,0
2017-02-23T04:20:15.416Z,0
2017-02-23T04:21:16.182Z,0
2017-02-23T04:22:15.806Z,0
2017-02-23T04:23:15.406Z,0
2017-02-23T04:24:15.380Z,0
2017-02-23T04:25:15.758Z,0
2017-02-23T04:26:15.358Z,0
2017-02-23T04:27:15.598Z,0
2017-02-23T04:28:15.709Z,0
2017-02-23T04:29:15.702Z,0
2017-02-23T04:30:14.930Z,0
2017-02-23T04:31:15.678Z,0
2017-02-23T04:32:15.211Z,0
2017-02-23T04:33:15.656Z,0
2017-02-23T04:34:14.902Z,0
2017-02-23T04:35:15.661Z,0
2017-02-23T04:36:15.267Z,0
2017-02-23T04:37:15.478Z,0
2017-02-23T04:38:15.237Z,0
2017-02-23T04:39:15.213Z,0
2017-02-23T04:40:15.598Z,0
2017-02-23T04:41:15.200Z,0
2017-02-23T04:42:15.850Z,0
2017-02-23T04:43:15.550Z,0
2017-02-23T04:44:14.773Z,0
2017-02-23T04:45:15.556Z,0
2017-02-23T04:46:14.742Z,0
2017-02-23T04:47:15.419Z,0
2017-02-23T04:48:15.133Z,0
2017-02-23T04:49:15.493Z,0
2017-02-23T04:50:15.484Z,0
2017-02-23T04:51:15.460Z,0
2017-02-23T04:52:15.420Z,0
2017-02-23T04:53:15.055Z,0
2017-02-23T04:54:14.283Z,0
2017-02-23T04:55:15.044Z,0
2017-02-23T04:56:15.429Z,0
2017-02-23T04:57:15.711Z,0
2017-02-23T04:58:15.016Z,0
2017-02-23T04:59:14.999Z,0
2017-02-23T05:00:15.362Z,0
2017-02-23T05:01:14.977Z,0
2017-02-23T05:02:15.611Z,0
2017-02-23T05:03:15.336Z,0
2017-02-23T05:04:15.342Z,0
2017-02-23T05:05:14.945Z,0
2017-02-23T05:06:14.953Z,0
2017-02-23T05:07:15.540Z,0
2017-02-23T05:08:15.284Z,0
2017-02-23T05:09:14.903Z,0
2017-02-23T05:10:15.271Z,0
2017-02-23T05:11:14.862Z,0
2017-02-23T05:12:15.100Z,0
2017-02-23T05:13:15.229Z,0
2017-02-23T05:14:14.475Z,0
2017-02-23T05:15:14.818Z,0
2017-02-23T05:16:15.200Z,0
2017-02-23T05:17:15.109Z,0
2017-02-23T05:18:15.181Z,0
2017-02-23T05:19:15.165Z,0
2017-02-23T05:20:15.172Z,0
2017-02-23T05:21:14.758Z,0
2017-02-23T05:22:14.702Z,0
2017-02-23T05:23:15.119Z,0
2017-02-23T05:24:14.754Z,0
2017-02-23T05:25:15.111Z,0
2017-02-23T05:26:14.334Z,0
2017-02-23T05:27:15.002Z,0
2017-02-23T05:28:15.065Z,0
2017-02-23T05:29:15.060Z,0
2017-02-23T05:30:14.661Z,0
2017-02-23T05:31:15.030Z,0
2017-02-23T05:32:14.899Z,0
2017-02-23T05:33:15.017Z,0
2017-02-23T05:34:15.034Z,0
2017-02-23T05:35:14.230Z,0
2017-02-23T05:36:14.997Z,0
2017-02-23T05:37:14.443Z,0
2017-02-23T05:38:14.579Z,0
2017-02-23T05:39:14.967Z,0
2017-02-23T05:40:14.951Z,0
2017-02-23T05:41:14.547Z,0
2017-02-23T05:42:15.226Z,0
2017-02-23T05:43:14.535Z,0
2017-02-23T05:44:14.894Z,0
2017-02-23T05:45:14.525Z,0
2017-02-23T05:46:14.891Z,0
2017-02-23T05:47:15.224Z,0
2017-02-23T05:48:14.860Z,0
2017-02-23T05:49:14.462Z,0
2017-02-23T05:50:14.833Z,0
2017-02-23T05:51:14.451Z,0
2017-02-23T05:52:14.679Z,0
2017-02-23T05:53:14.799Z,0
2017-02-23T05:54:14.796Z,0
2017-02-23T05:55:14.780Z,0
2017-02-23T05:56:14.763Z,0
2017-02-23T05:57:15.101Z,5
2017-02-23T05:58:14.358Z,5
2017-02-23T05:59:14.374Z,5
2017-02-23T06:00:14.731Z,5
2017-02-23T06:01:14.725Z,5
2017-02-23T06:02:14.587Z,5
2017-02-23T06:03:14.687Z,5
2017-02-23T06:04:14.710Z,5
2017-02-23T06:05:14.673Z,10
2017-02-23T06:06:14.656Z,10
2017-02-23T06:07:15.002Z,10
2017-02-23T06:08:14.640Z,10
2017-02-23T06:09:14.623Z,10
2017-02-23T06:10:14.257Z,15
2017-02-23T06:11:14.620Z,15
2017-02-23T06:12:14.893Z,15
2017-02-23T06:13:14.217Z,20
2017-02-23T06:14:14.188Z,20
2017-02-23T06:15:14.558Z,20
2017-02-23T06:16:14.544Z,25
2017-02-23T06:17:14.794Z,25
2017-02-23T06:18:14.145Z,30
2017-02-23T06:19:14.515Z,30
2017-02-23T06:20:14.518Z,30
2017-02-23T06:21:14.506Z,35
2017-02-23T06:22:14.452Z,35
2017-02-23T06:23:14.478Z,35
2017-02-23T06:24:14.465Z,40
2017-02-23T06:25:14.101Z,40
2017-02-23T06:26:14.464Z,45
2017-02-23T06:27:14.673Z,45
2017-02-23T06:28:14.441Z,50
2017-02-23T06:29:14.073Z,50
2017-02-23T06:30:14.408Z,50
2017-02-23T06:31:14.015Z,50
2017-02-23T06:32:14.254Z,55
2017-02-23T06:33:14.393Z,55
2017-02-23T06:34:14.367Z,60
2017-02-23T06:35:13.965Z,60
2017-02-23T06:36:13.600Z,55
2017-02-23T06:37:14.641Z,55
2017-02-23T06:38:13.940Z,60
2017-02-23T06:39:14.314Z,60
2017-02-23T06:40:13.908Z,60
2017-02-23T06:41:14.271Z,55
2017-02-23T06:42:14.533Z,55
2017-02-23T06:43:14.284Z,55
2017-02-23T06:44:14.260Z,55
2017-02-23T06:45:14.253Z,55
2017-02-23T06:46:13.836Z,55
2017-02-23T06:47:14.468Z,55
2017-02-23T06:48:13.811Z,55
2017-02-23T06:49:13.819Z,55
2017-02-23T06:50:14.183Z,55
2017-02-23T06:51:14.170Z,55
2017-02-23T06:52:13.771Z,55
2017-02-23T06:53:14.136Z,55
2017-02-23T06:54:14.143Z,50
2017-02-23T06:55:14.137Z,50
2017-02-23T06:56:14.117Z,55
2017-02-23T06:57:14.109Z,55
2017-02-23T06:58:14.418Z,55
2017-02-23T06:59:14.103Z,60
2017-02-23T07:00:14.084Z,60
2017-02-23T07:01:14.065Z,60
2017-02-23T07:02:14.071Z,60
2017-02-23T07:03:14.345Z,55
2017-02-23T07:04:14.046Z,55
2017-02-23T07:05:13.653Z,55
2017-02-23T07:06:14.020Z,55
2017-02-23T07:07:13.620Z,60
2017-02-23T07:08:14.322Z,65
2017-02-23T07:09:14.003Z,65
2017-02-23T07:10:13.991Z,70
2017-02-23T07:11:13.976Z,75
2017-02-23T07:12:13.987Z,85
2017-02-23T07:13:14.197Z,90
2017-02-23T07:14:13.952Z,95
2017-02-23T07:15:13.926Z,100
2017-02-23T07:16:13.545Z,95
2017-02-23T07:17:13.945Z,85
2017-02-23T07:18:13.816Z,85
2017-02-23T07:19:13.908Z,95
2017-02-23T07:20:13.944Z,105
2017-02-23T07:21:13.874Z,115
2017-02-23T07:22:13.107Z,125
2017-02-23T07:23:14.168Z,130
2017-02-23T07:24:13.858Z,130
2017-02-23T07:25:13.830Z,125
2017-02-23T07:26:13.838Z,125
2017-02-23T07:27:13.826Z,125
2017-02-23T07:28:14.050Z,130
2017-02-23T07:29:13.040Z,130
2017-02-23T07:30:13.798Z,140
2017-02-23T07:31:13.397Z,140
2017-02-23T07:32:13.391Z,140
2017-02-23T07:33:13.629Z,140
2017-02-23T07:34:13.376Z,145
2017-02-23T07:35:13.359Z,145
2017-02-23T07:36:13.733Z,150
2017-02-23T07:37:13.731Z,155
2017-02-23T07:38:13.995Z,155
2017-02-23T07:39:12.959Z,165
2017-02-23T07:40:13.720Z,175
2017-02-23T07:41:13.696Z,185
2017-02-23T07:42:13.308Z,200
2017-02-23T07:43:13.983Z,210
2017-02-23T07:44:13.672Z,210
2017-02-23T07:45:13.660Z,200
2017-02-23T07:46:13.290Z,190
2017-02-23T07:47:13.642Z,175
2017-02-23T07:48:13.932Z,170
2017-02-23T07:49:13.618Z,170
2017-02-23T07:50:13.228Z,175
2017-02-23T07:51:13.617Z,180
2017-02-23T07:52:13.234Z,180
2017-02-23T07:53:13.505Z,190
2017-02-23T07:54:12.820Z,195
2017-02-23T07:55:13.591Z,200
2017-02-23T07:56:13.564Z,205
2017-02-23T07:57:13.565Z,210
2017-02-23T07:58:13.016Z,205
2017-02-23T07:59:13.560Z,185
2017-02-23T08:00:13.548Z,175
2017-02-23T08:01:13.539Z,165
2017-02-23T08:02:13.541Z,175
2017-02-23T08:03:13.756Z,190
2017-02-23T08:04:13.120Z,200
2017-02-23T08:05:12.724Z,205
2017-02-23T08:06:13.486Z,205
2017-02-23T08:07:12.708Z,200
2017-02-23T08:08:13.774Z,200
2017-02-23T08:09:13.459Z,190
2017-02-23T08:10:13.066Z,190
2017-02-23T08:11:13.454Z,195
2017-02-23T08:12:13.451Z,190
2017-02-23T08:13:13.712Z,190
2017-02-23T08:14:13.448Z,195
2017-02-23T08:15:13.039Z,190
2017-02-23T08:16:13.457Z,185
2017-02-23T08:17:13.404Z,180
2017-02-23T08:18:13.685Z,170
2017-02-23T08:19:13.396Z,165
2017-02-23T08:20:12.994Z,155
2017-02-23T08:21:13.369Z,145
2017-02-23T08:22:13.372Z,145
2017-02-23T08:23:13.703Z,160
2017-02-23T08:24:13.356Z,155
2017-02-23T08:25:12.961Z,150
2017-02-23T08:26:13.329Z,150
2017-02-23T08:27:13.348Z,145
2017-02-23T08:28:13.586Z,140
2017-02-23T08:29:13.321Z,140
2017-02-23T08:30:13.320Z,145
2017-02-23T08:31:12.914Z,145
2017-02-23T08:32:12.909Z,150
2017-02-23T08:33:13.550Z,160
2017-02-23T08:34:12.881Z,185
2017-02-23T08:35:13.290Z,200
2017-02-23T08:36:13.261Z,225
2017-02-23T08:37:13.252Z,230
2017-02-23T08:38:13.499Z,220
2017-02-23T08:39:13.230Z,205
2017-02-23T08:40:12.838Z,195
2017-02-23T08:41:13.222Z,190
2017-02-23T08:42:12.453Z,190
2017-02-23T08:43:13.122Z,195
2017-02-23T08:44:12.424Z,190
2017-02-23T08:45:13.204Z,190
2017-02-23T08:46:13.231Z,195
2017-02-23T08:47:13.190Z,215
2017-02-23T08:48:13.035Z,240
2017-02-23T08:49:13.154Z,255
2017-02-23T08:50:12.373Z,265
2017-02-23T08:51:13.171Z,255
2017-02-23T08:52:13.141Z,245
2017-02-23T08:53:13.008Z,240
2017-02-23T08:54:13.118Z,250
2017-02-23T08:55:13.134Z,260
2017-02-23T08:56:12.718Z,260
2017-02-23T08:57:13.118Z,265
2017-02-23T08:58:13.402Z,275
2017-02-23T08:59:13.120Z,285
2017-02-23T09:00:12.318Z,285
2017-02-23T09:01:12.694Z,285
2017-02-23T09:02:13.076Z,280
2017-02-23T09:03:13.316Z,275
2017-02-23T09:04:13.077Z,275
2017-02-23T09:05:13.053Z,280
2017-02-23T09:06:12.271Z,290
2017-02-23T09:07:12.278Z,275
2017-02-23T09:08:12.880Z,260
2017-02-23T09:09:13.034Z,250
2017-02-23T09:10:13.040Z,235
2017-02-23T09:11:12.611Z,225
2017-02-23T09:12:12.619Z,210
2017-02-23T09:13:13.336Z,195
2017-02-23T09:14:12.989Z,175
2017-02-23T09:15:12.594Z,160
2017-02-23T09:16:12.579Z,145
2017-02-23T09:17:12.971Z,145
2017-02-23T09:18:13.327Z,145
2017-02-23T09:19:12.964Z,145
2017-02-23T09:20:12.466Z,140
2017-02-23T09:21:12.936Z,135
2017-02-23T09:22:12.936Z,130
2017-02-23T09:23:12.792Z,120
2017-02-23T09:24:12.532Z,115
2017-02-23T09:25:12.532Z,120
2017-02-23T09:26:12.531Z,130
2017-02-23T09:27:12.520Z,145
2017-02-23T09:28:12.819Z,145
2017-02-23T09:29:12.883Z,145
2017-02-23T09:30:12.485Z,145
2017-02-23T09:31:12.474Z,145
2017-02-23T09:32:12.493Z,140
2017-02-23T09:33:12.707Z,135
2017-02-23T09:34:12.503Z,135
2017-02-23T09:35:12.857Z,140
2017-02-23T09:36:12.450Z,145
2017-02-23T09:37:12.823Z,150
2017-02-23T09:38:12.703Z,155
2017-02-23T09:39:12.044Z,160
2017-02-23T09:40:12.427Z,165
2017-02-23T09:41:12.821Z,170
2017-02-23T09:42:12.425Z,175
2017-02-23T09:43:12.699Z,185
2017-02-23T09:44:12.385Z,180
2017-02-23T09:45:12.386Z,170
2017-02-23T09:46:11.985Z,160
2017-02-23T09:47:12.365Z,150
2017-02-23T09:48:12.672Z,150
2017-02-23T09:49:12.351Z,150
2017-02-23T09:50:12.732Z,165
2017-02-23T09:51:12.715Z,190
2017-02-23T09:52:12.705Z,220
2017-02-23T09:53:12.956Z,255
2017-02-23T09:54:12.738Z,280
2017-02-23T09:55:12.735Z,295
2017-02-23T09:56:12.733Z,285
2017-02-23T09:57:12.294Z,265
2017-02-23T09:58:12.928Z,250
2017-02-23T09:59:12.650Z,235
2017-02-23T10:00:12.685Z,230
2017-02-23T10:01:12.262Z,235
2017-02-23T10:02:12.244Z,245
2017-02-23T10:03:12.517Z,230
2017-02-23T10:04:11.870Z,225
2017-02-23T10:05:12.606Z,225
2017-02-23T10:06:12.606Z,225
2017-02-23T10:07:12.605Z,235
2017-02-23T10:08:12.508Z,230
2017-02-23T10:09:12.574Z,215
2017-02-23T10:10:11.806Z,205
2017-02-23T10:11:12.575Z,185
2017-02-23T10:12:12.184Z,175
2017-02-23T10:13:12.873Z,195
2017-02-23T10:14:12.546Z,200
2017-02-23T10:15:12.567Z,215
2017-02-23T10:16:12.564Z,200
2017-02-23T10:17:12.535Z,200
2017-02-23T10:18:12.420Z,190
2017-02-23T10:19:12.502Z,190
2017-02-23T10:20:11.353Z,195
2017-02-23T10:21:12.494Z,205
2017-02-23T10:22:12.483Z,210
2017-02-23T10:23:12.776Z,210
2017-02-23T10:24:12.480Z,200
2017-02-23T10:25:12.485Z,215
2017-02-23T10:26:12.457Z,235
2017-02-23T10:27:12.464Z,270
2017-02-23T10:28:12.094Z,300
2017-02-23T10:29:12.719Z,310
2017-02-23T10:30:11.679Z,310
2017-02-23T10:31:12.436Z,315
2017-02-23T10:32:12.414Z,310
2017-02-23T10:33:11.649Z,300
2017-02-23T10:34:12.664Z,310
2017-02-23T10:35:12.391Z,325
2017-02-23T10:36:12.395Z,325
2017-02-23T10:37:12.364Z,315
2017-02-23T10:38:12.384Z,315
2017-02-23T10:39:12.718Z,315
2017-02-23T10:40:11.959Z,295
2017-02-23T10:41:11.997Z,285
2017-02-23T10:42:12.328Z,285
2017-02-23T10:43:12.319Z,280
2017-02-23T10:44:12.190Z,270
2017-02-23T10:45:12.318Z,305
2017-02-23T10:46:12.311Z,345
2017-02-23T10:47:12.292Z,345
2017-02-23T10:48:11.903Z,340
2017-02-23T10:49:12.557Z,305
2017-02-23T10:50:12.278Z,310
2017-02-23T10:51:12.311Z,320
2017-02-23T10:52:11.883Z,330
2017-02-23T10:53:11.887Z,295
2017-02-23T10:54:12.602Z,260
2017-02-23T10:55:11.846Z,235
2017-02-23T10:56:12.233Z,235
2017-02-23T10:57:11.841Z,255
2017-02-23T10:58:12.214Z,285
2017-02-23T10:59:12.512Z,280
2017-02-23T11:00:12.206Z,265
2017-02-23T11:01:12.191Z,240
2017-02-23T11:02:11.798Z,225
2017-02-23T11:03:11.802Z,215
2017-02-23T11:04:12.430Z,200
2017-02-23T11:05:12.190Z,195
2017-02-23T11:06:11.772Z,195
2017-02-23T11:07:11.797Z,210
2017-02-23T11:08:11.823Z,210
2017-02-23T11:09:12.447Z,220
2017-02-23T11:10:12.168Z,210
2017-02-23T11:11:11.753Z,205
2017-02-23T11:12:11.755Z,205
2017-02-23T11:13:12.112Z,205
2017-02-23T11:14:12.019Z,220
2017-02-23T11:15:12.110Z,215
2017-02-23T11:16:11.704Z,205
2017-02-23T11:17:12.089Z,215
2017-02-23T11:18:12.076Z,210
2017-02-23T11:19:12.338Z,210
2017-02-23T11:20:12.096Z,210
2017-02-23T11:21:12.064Z,190
2017-02-23T11:22:12.052Z,170
2017-02-23T11:23:12.043Z,165
2017-02-23T11:24:12.383Z,160
2017-02-23T11:25:12.030Z,150
2017-02-23T11:26:12.027Z,155
2017-02-23T11:27:11.619Z,150
2017-02-23T11:28:12.011Z,135
2017-02-23T11:29:12.297Z,130
2017-02-23T11:30:11.987Z,125
2017-02-23T11:31:11.978Z,130
2017-02-23T11:32:11.977Z,140
2017-02-23T11:33:11.580Z,130
2017-02-23T11:34:11.897Z,110
2017-02-23T11:35:11.985Z,105
2017-02-23T11:36:11.942Z,105
2017-02-23T11:37:11.958Z,125
2017-02-23T11:38:11.926Z,130
2017-02-23T11:39:11.840Z,130
2017-02-23T11:40:11.916Z,110
2017-02-23T11:41:11.908Z,105
2017-02-23T11:42:11.508Z,100
2017-02-23T11:43:11.902Z,95
2017-02-23T11:44:12.126Z,105
2017-02-23T11:45:11.877Z,110
2017-02-23T11:46:11.865Z,130
2017-02-23T11:47:11.877Z,165
2017-02-23T11:48:11.460Z,155
2017-02-23T11:49:12.089Z,155
2017-02-23T11:50:11.858Z,145
2017-02-23T11:51:11.461Z,150
2017-02-23T11:52:11.814Z,140
2017-02-23T11:53:11.815Z,120
2017-02-23T11:54:12.052Z,120
2017-02-23T11:55:12.063Z,135
2017-02-23T11:56:11.780Z,120
2017-02-23T11:57:11.001Z,125
2017-02-23T11:58:11.819Z,120
2017-02-23T11:59:12.083Z,110
2017-02-23T12:00:11.804Z,110
2017-02-23T12:01:11.752Z,115
2017-02-23T12:02:11.733Z,120
2017-02-23T12:03:11.722Z,110
2017-02-23T12:04:12.029Z,100
2017-02-23T12:05:11.716Z,90
2017-02-23T12:06:11.728Z,100
2017-02-23T12:07:11.690Z,100
2017-02-23T12:08:11.686Z,90
2017-02-23T12:09:11.972Z,85
2017-02-23T12:10:11.285Z,95
2017-02-23T12:11:11.672Z,100
2017-02-23T12:12:11.675Z,90
2017-02-23T12:13:11.255Z,95
2017-02-23T12:14:11.511Z,100
2017-02-23T12:15:11.644Z,105
2017-02-23T12:16:11.632Z,115
2017-02-23T12:17:11.597Z,110
2017-02-23T12:18:11.596Z,100
2017-02-23T12:19:11.939Z,100
2017-02-23T12:20:11.573Z,90
2017-02-23T12:21:11.565Z,85
2017-02-23T12:22:11.579Z,95
2017-02-23T12:23:11.551Z,115
2017-02-23T12:24:11.813Z,110
2017-02-23T12:25:11.569Z,100
2017-02-23T12:26:11.536Z,100
2017-02-23T12:27:11.515Z,115
2017-02-23T12:28:11.117Z,100
2017-02-23T12:29:11.752Z,115
2017-02-23T12:30:11.531Z,110
2017-02-23T12:31:11.497Z,115
2017-02-23T12:32:11.085Z,140
2017-02-23T12:33:11.478Z,160
2017-02-23T12:34:11.425Z,165
2017-02-23T12:35:11.456Z,205
2017-02-23T12:36:11.434Z,200
2017-02-23T12:37:11.434Z,210
2017-02-23T12:38:11.418Z,200
2017-02-23T12:39:11.709Z,165
2017-02-23T12:40:11.034Z,155
2017-02-23T12:41:11.409Z,175
2017-02-23T12:42:11.025Z,150
2017-02-23T12:43:10.626Z,140
2017-02-23T12:44:11.618Z,95
2017-02-23T12:45:11.358Z,95
2017-02-23T12:46:11.353Z,115
2017-02-23T12:47:11.361Z,130
2017-02-23T12:48:10.560Z,145
2017-02-23T12:49:11.575Z,160
2017-02-23T12:50:10.961Z,190
2017-02-23T12:51:11.325Z,135
2017-02-23T12:52:11.316Z,95
2017-02-23T12:53:11.300Z,115
2017-02-23T12:54:11.227Z,150
2017-02-23T12:55:11.278Z,160
2017-02-23T12:56:11.268Z,145
2017-02-23T12:57:11.262Z,125
2017-02-23T12:58:11.266Z,145
2017-02-23T12:59:11.548Z,120
2017-02-23T13:00:11.232Z,90
2017-02-23T13:01:11.223Z,95
2017-02-23T13:02:11.220Z,95
2017-02-23T13:03:11.238Z,85
2017-02-23T13:04:11.172Z,120
2017-02-23T13:05:10.831Z,110
2017-02-23T13:06:10.816Z,115
2017-02-23T13:07:11.187Z,135
2017-02-23T13:08:10.783Z,130
2017-02-23T13:09:11.440Z,115
2017-02-23T13:10:10.762Z,110
2017-02-23T13:11:10.752Z,145
2017-02-23T13:12:10.755Z,155
2017-02-23T13:13:11.407Z,165
2017-02-23T13:14:11.373Z,160
2017-02-23T13:15:10.721Z,155
2017-02-23T13:16:10.714Z,170
2017-02-23T13:17:11.102Z,185
2017-02-23T13:18:11.088Z,170
2017-02-23T13:19:11.443Z,165
2017-02-23T13:20:10.695Z,165
2017-02-23T13:21:10.710Z,130
2017-02-23T13:22:11.054Z,130
2017-02-23T13:23:10.668Z,140
2017-02-23T13:24:10.943Z,130
2017-02-23T13:25:11.031Z,115
2017-02-23T13:26:10.624Z,145
2017-02-23T13:27:11.004Z,115
2017-02-23T13:28:11.014Z,135
2017-02-23T13:29:11.254Z,125
2017-02-23T13:30:10.990Z,145
2017-02-23T13:31:10.596Z,150
2017-02-23T13:32:10.979Z,150
2017-02-23T13:33:10.955Z,130
2017-02-23T13:34:11.198Z,125
2017-02-23T13:35:10.943Z,120
2017-02-23T13:36:10.557Z,110
2017-02-23T13:37:10.541Z,105
2017-02-23T13:38:10.932Z,85
2017-02-23T13:39:11.223Z,90
2017-02-23T13:40:10.525Z,85
2017-02-23T13:41:10.904Z,80
2017-02-23T13:42:10.891Z,70
2017-02-23T13:43:10.890Z,90
2017-02-23T13:44:10.736Z,65
2017-02-23T13:45:10.891Z,70
2017-02-23T13:46:10.857Z,75
2017-02-23T13:47:10.841Z,55
2017-02-23T13:48:10.850Z,70
2017-02-23T13:49:11.201Z,70
2017-02-23T13:50:10.452Z,80
2017-02-23T13:51:10.851Z,70
2017-02-23T13:52:10.427Z,80
2017-02-23T13:53:10.414Z,75
2017-02-23T13:54:10.402Z,85
2017-02-23T13:55:10.731Z,90
2017-02-23T13:56:10.789Z,85
2017-02-23T13:57:10.780Z,100
2017-02-23T13:58:10.390Z,90
2017-02-23T13:59:10.744Z,110
2017-02-23T14:00:10.609Z,110
2017-02-23T14:01:10.741Z,140
2017-02-23T14:02:09.601Z,125
2017-02-23T14:03:10.328Z,110
2017-02-23T14:04:10.735Z,120
2017-02-23T14:05:10.614Z,125
2017-02-23T14:06:10.716Z,110
2017-02-23T14:07:10.689Z,85
2017-02-23T14:08:10.677Z,90
2017-02-23T14:09:10.672Z,90
2017-02-23T14:10:10.202Z,90
2017-02-23T14:11:10.266Z,75
2017-02-23T14:12:09.894Z,85
2017-02-23T14:13:10.641Z,85
2017-02-23T14:14:10.655Z,85
2017-02-23T14:15:10.936Z,80